Centerville, IA (52544)

9:34 PM CDT on July 06, 2015 (GMT -0500)
Centerville Municipal | | Change Station
CLOSE
Current Station
Airport
Location: Centerville,
Elevation: 1027 ft
Nearby Weather Stations
Active Advisory: Special Statement

Elev 1027 ft 40.68 °N, 92.90 °W | Updated 19 minutes ago

Overcast
Overcast
72 °F
Feels Like 72 °F
N
6
Wind Variable Wind from North

Today
High -- | Low -- °F
--% Chance of Precip.
Yesterday
High -- | Low -- °F
Precip. -- in
5:46 AM 8:45 PM
Waning Gibbous, 70% visible
Pressure 29.91 in
Visibility 9.0 miles
Clouds Scattered Clouds 200 ft
Overcast 900 ft
Dew Point 70 °F
Humidity 94%
Rainfall 1.36 in
Snow Depth Not available.
UV 0 out of 12
Pollen 1.30 out of 12
Air Quality Not available.
Flu Activity Not available.
METAR KTVK 070215Z AUTO 35005KT 9SM RA SCT002 OVC009 22/21 A2991 RMK AO2 P0001

More Conditions Fewer Conditions

Pressure 29.91 in
Visibility 9.0 miles
Clouds Scattered Clouds 200 ft
Overcast 900 ft
Dew Point 70 °F
Humidity 94%
Rainfall 1.36 in
Snow Depth Not available.
UV 0 out of 12
Pollen 1.30 out of 12
Air Quality Not available.
Flu Activity Not available.
METAR KTVK 070215Z AUTO 35005KT 9SM RA SCT002 OVC009 22/21 A2991 RMK AO2 P0001

More Conditions Fewer Conditions

10-Day Weather Forecast

×

Almanac

Astronomy

Jul. 06, 2015 Rise Set
Actual Time
Civil Twilight
Nautical Twilight
Astronomical Twilight
Moon
Length of Visible Light
Length of Day
Tomorrow will be .
, % of the Moon is Illuminated

Today's Extremes

State Highs State Lows

Community

WunderPhotos

Upload Photos

1,835,692 photos uploaded!

WunderBlogs® & News

Nearby

Air Quality

  Air Quality AQ Index Pollutant
Not available.

Snow Depth

Station Depth Elevation

Earthquake Activity

City Distance Mag. Time & Date
Minimum magnitude displayed is 2.5.

Coastal Water Temperatures

Place Temperature

Stations

Nearby Weather Stations

Station Location Temp. Windchill Dew Point Humidity Wind Precip. Elev Updated Type
                   
Special Statement
Statement as of 7:48 PM CDT on July 06, 2015

... Smoke spreading across much of Iowa...

A large area of smoke from wild fires in northern Canada has
descended to ground level and moved into Iowa this evening. The
smoke will be most noticeable across about the northwest half of
the state early tonight. Anyone with breathing difficulties or
other health issues... as well as the very Young and
elderly... should consider avoiding outside travel until the
situation improves.


Lee

748 PM CDT Mon Jul 6 2015

... Smoke spreading across much of Iowa...

A large area of smoke from wild fires in northern Canada has
descended to ground level and moved into Iowa this evening. The
smoke will be most noticeable across about the northwest half of
the state early tonight. Anyone with breathing difficulties or
other health issues... as well as the very Young and
elderly... should consider avoiding outside travel until the
situation improves.


Lee